Time;durP1;ratioP1;P1;durP2;ratioP2;P2;SDS_P1;SDS_P2;PMS_P1;PMS_P2;Temp;Humidity;BMP_temperature;BMP_pressure;BME280_temperature;BME280_humidity;BME280_pressure;Samples;Min_cycle;Max_cycle;Signal;HPM_P1;HPM_P2
2021/03/14 00:01:00;;;;;;;5.00;1.87;;;7.30;99.90;;;;;;5033976;28;20471;-50
2021/03/14 00:03:28;;;;;;;4.70;1.87;;;6.90;99.90;;;;;;5033722;28;20797;-49
2021/03/14 00:05:56;;;;;;;3.80;1.77;;;7.10;99.90;;;;;;5034148;28;20442;-50
2021/03/14 00:08:24;;;;;;;6.00;2.40;;;7.00;99.90;;;;;;5033960;28;20468;-50
2021/03/14 00:10:52;;;;;;;6.27;3.30;;;7.10;99.90;;;;;;5016257;28;20597;-50
2021/03/14 00:13:20;;;;;;;2.27;1.60;;;7.00;99.90;;;;;;5033655;28;20461;-50
2021/03/14 00:15:47;;;;;;;4.53;2.57;;;7.10;99.90;;;;;;5033945;28;20983;-50
2021/03/14 00:18:15;;;;;;;3.33;1.60;;;7.10;99.90;;;;;;5033697;28;20434;-49
2021/03/14 00:20:41;;;;;;;3.40;1.90;;;7.20;99.90;;;;;;5033777;28;20466;-48
2021/03/14 00:23:08;;;;;;;6.00;2.30;;;6.90;99.90;;;;;;5033159;28;20452;-50
2021/03/14 00:25:34;;;;;;;4.03;2.00;;;6.90;99.90;;;;;;5033717;28;20433;-51
2021/03/14 00:28:00;;;;;;;4.00;1.90;;;6.90;99.90;;;;;;5033557;28;20471;-48
2021/03/14 00:30:27;;;;;;;2.87;1.57;;;7.10;99.90;;;;;;5033513;28;20510;-50
2021/03/14 00:32:55;;;;;;;3.27;2.13;;;7.20;99.90;;;;;;5033061;28;20837;-48
2021/03/14 00:35:22;;;;;;;4.17;2.30;;;7.30;99.90;;;;;;5033070;28;20436;-49
2021/03/14 00:37:49;;;;;;;3.93;1.90;;;7.10;99.90;;;;;;5033367;28;20529;-49
2021/03/14 00:40:16;;;;;;;4.23;2.20;;;7.20;99.90;;;;;;5033027;28;20975;-49
2021/03/14 00:42:42;;;;;;;3.27;1.90;;;7.10;99.90;;;;;;5032361;28;20474;-48
2021/03/14 00:45:09;;;;;;;3.63;1.97;;;7.30;99.90;;;;;;5033423;28;20450;-49
2021/03/14 00:47:36;;;;;;;5.63;1.80;;;7.20;99.90;;;;;;5033090;28;20491;-49
2021/03/14 00:50:05;;;;;;;5.13;1.90;;;7.20;99.90;;;;;;5015622;28;20583;-49
2021/03/14 00:52:32;;;;;;;3.03;1.40;;;7.30;99.90;;;;;;5032922;28;20437;-49
2021/03/14 00:54:59;;;;;;;8.00;2.30;;;7.20;99.90;;;;;;5015250;28;20460;-50
2021/03/14 00:57:26;;;;;;;7.97;2.10;;;7.50;99.90;;;;;;5015180;28;20485;-49
2021/03/14 00:59:52;;;;;;;6.50;1.93;;;7.30;99.90;;;;;;5015263;28;20469;-49
2021/03/14 01:02:18;;;;;;;3.87;2.10;;;7.50;99.90;;;;;;5014896;28;20481;-49
2021/03/14 01:04:45;;;;;;;3.40;1.70;;;7.40;99.90;;;;;;5015014;28;20463;-51
2021/03/14 01:07:12;;;;;;;3.57;2.23;;;7.30;99.90;;;;;;5033032;28;20436;-49
2021/03/14 01:09:38;;;;;;;4.30;2.10;;;7.30;99.90;;;;;;5015125;28;20441;-51
2021/03/14 01:12:06;;;;;;;2.90;2.30;;;7.20;99.90;;;;;;5014988;28;20573;-50
2021/03/14 01:14:56;;;;;;;2.93;2.00;;;7.20;99.90;;;;;;5019417;28;20446;-50
2021/03/14 01:17:37;;;;;;;2.13;1.90;;;6.80;99.90;;;;;;5014994;28;20497;-49
2021/03/14 01:20:05;;;;;;;5.90;2.53;;;7.00;99.90;;;;;;5032748;28;20440;-50
2021/03/14 01:22:32;;;;;;;1.97;1.77;;;7.30;99.90;;;;;;5032307;28;20441;-49
2021/03/14 01:24:58;;;;;;;5.37;1.90;;;7.40;99.90;;;;;;5032697;28;20423;-50
2021/03/14 01:27:25;;;;;;;6.20;2.27;;;7.50;99.90;;;;;;5014881;28;20445;-49
2021/03/14 01:29:52;;;;;;;9.00;2.43;;;7.30;99.90;;;;;;5032664;28;20505;-49
2021/03/14 01:32:18;;;;;;;4.80;1.93;;;7.20;99.90;;;;;;5032827;28;20449;-50
2021/03/14 01:34:48;;;;;;;3.77;2.10;;;7.30;99.90;;;;;;5032928;28;20484;-49
2021/03/14 01:37:14;;;;;;;1.90;1.53;;;7.30;99.90;;;;;;5032847;28;20531;-49
2021/03/14 01:39:41;;;;;;;4.93;2.90;;;7.40;99.90;;;;;;5032811;28;20502;-49
2021/03/14 01:42:07;;;;;;;3.70;2.10;;;7.20;99.90;;;;;;5033179;28;20476;-48
2021/03/14 01:44:34;;;;;;;3.30;2.10;;;7.50;99.90;;;;;;5033676;28;20429;-50
2021/03/14 01:47:00;;;;;;;4.57;2.40;;;7.20;99.90;;;;;;5034012;28;20792;-52
2021/03/14 01:49:27;;;;;;;5.30;2.20;;;7.30;99.90;;;;;;5033737;28;20898;-50
2021/03/14 01:51:53;;;;;;;2.90;2.00;;;7.10;99.90;;;;;;5034832;28;20455;-49
2021/03/14 01:54:19;;;;;;;3.20;2.00;;;7.60;99.90;;;;;;5034417;28;20801;-49
2021/03/14 01:56:47;;;;;;;3.13;2.27;;;7.20;99.90;;;;;;5039422;28;20511;-50
2021/03/14 01:59:13;;;;;;;3.00;2.00;;;7.10;99.90;;;;;;5038100;28;20436;-49
2021/03/14 02:01:41;;;;;;;4.33;2.23;;;7.00;99.90;;;;;;5037702;28;20545;-51
2021/03/14 02:04:07;;;;;;;3.13;2.23;;;7.50;99.90;;;;;;5020039;28;20443;-49
2021/03/14 02:06:35;;;;;;;3.83;2.67;;;7.00;99.90;;;;;;5036949;28;20445;-49
2021/03/14 02:09:01;;;;;;;5.57;2.10;;;7.00;99.90;;;;;;5036490;28;20406;-49
2021/03/14 02:11:34;;;;;;;3.93;2.20;;;7.20;99.90;;;;;;5037080;28;20818;-49
2021/03/14 02:14:03;;;;;;;3.57;2.10;;;7.40;99.90;;;;;;5019637;28;20460;-50
2021/03/14 02:16:33;;;;;;;5.37;2.30;;;7.30;99.90;;;;;;5036452;28;20464;-49
2021/03/14 02:19:03;;;;;;;3.57;2.30;;;7.20;99.90;;;;;;5036572;28;20511;-48
2021/03/14 02:21:32;;;;;;;3.77;2.60;;;6.70;99.90;;;;;;5036085;28;20884;-49
2021/03/14 02:24:03;;;;;;;3.93;2.17;;;7.20;99.90;;;;;;5035677;28;20922;-49
2021/03/14 02:26:34;;;;;;;4.60;2.33;;;7.40;99.90;;;;;;5035806;28;20441;-49
2021/03/14 02:29:03;;;;;;;6.33;2.73;;;7.40;99.90;;;;;;5035722;28;20523;-48
2021/03/14 02:31:30;;;;;;;7.23;2.47;;;7.30;99.90;;;;;;5036494;28;20544;-49
2021/03/14 02:34:00;;;;;;;4.20;2.40;;;7.30;99.90;;;;;;5035564;28;20460;-49
2021/03/14 02:36:27;;;;;;;2.93;2.57;;;7.20;99.90;;;;;;5035668;28;20512;-50
2021/03/14 02:38:53;;;;;;;3.43;2.43;;;7.50;99.90;;;;;;5035918;28;20947;-49
2021/03/14 02:41:20;;;;;;;5.00;2.77;;;7.20;99.90;;;;;;5035673;28;21085;-48
2021/03/14 02:43:48;;;;;;;5.23;2.40;;;7.40;99.90;;;;;;5035418;28;20433;-49
2021/03/14 02:46:16;;;;;;;8.03;3.17;;;7.50;99.90;;;;;;5035676;28;20447;-47
2021/03/14 02:48:43;;;;;;;4.77;3.20;;;7.60;99.90;;;;;;5035334;28;20529;-48
2021/03/14 02:51:10;;;;;;;4.33;3.03;;;7.30;99.90;;;;;;5035874;28;20461;-48
2021/03/14 02:53:37;;;;;;;5.40;3.23;;;7.70;99.90;;;;;;5035386;28;20472;-48
2021/03/14 02:56:05;;;;;;;5.90;3.50;;;7.50;99.90;;;;;;5034994;28;20515;-49
2021/03/14 02:58:32;;;;;;;4.33;3.07;;;7.40;99.90;;;;;;5034676;28;20438;-48
2021/03/14 03:01:01;;;;;;;7.53;3.83;;;7.50;99.90;;;;;;5053171;22;21022;-46
2021/03/14 03:03:28;;;;;;;5.10;3.60;;;7.50;99.90;;;;;;5054468;28;20439;-48
2021/03/14 03:05:57;;;;;;;3.43;3.13;;;7.30;99.90;;;;;;5053845;28;20508;-46
2021/03/14 03:08:25;;;;;;;8.33;3.83;;;7.70;99.90;;;;;;5054714;28;20481;-48
2021/03/14 03:10:53;;;;;;;5.23;3.53;;;7.90;99.90;;;;;;5054295;28;20462;-46
2021/03/14 03:13:20;;;;;;;6.13;3.80;;;7.50;99.90;;;;;;5053825;28;20464;-45
2021/03/14 03:15:48;;;;;;;8.93;4.17;;;7.70;99.90;;;;;;5053775;28;20532;-45
2021/03/14 03:18:15;;;;;;;3.73;3.30;;;7.80;99.90;;;;;;5053570;28;20519;-45
2021/03/14 03:20:43;;;;;;;5.00;3.27;;;7.30;99.90;;;;;;5053037;28;20574;-45
2021/03/14 03:23:09;;;;;;;8.30;4.27;;;7.50;99.90;;;;;;5053578;28;20941;-45
2021/03/14 03:25:36;;;;;;;3.60;3.00;;;7.60;99.90;;;;;;5054145;28;20428;-46
2021/03/14 03:28:03;;;;;;;4.90;3.43;;;7.30;99.90;;;;;;5054105;28;20964;-45
2021/03/14 03:30:29;;;;;;;4.90;3.57;;;7.60;99.90;;;;;;5053729;28;20512;-45
2021/03/14 03:32:55;;;;;;;4.97;3.63;;;6.70;99.90;;;;;;5053673;28;20488;-46
2021/03/14 03:35:24;;;;;;;4.67;3.10;;;7.30;99.90;;;;;;5053846;28;20534;-45
2021/03/14 03:37:51;;;;;;;3.27;2.93;;;7.10;99.90;;;;;;5053700;28;20991;-46
2021/03/14 03:40:21;;;;;;;3.83;2.70;;;7.20;99.90;;;;;;5053626;28;20435;-46
2021/03/14 03:42:52;;;;;;;4.47;2.10;;;7.20;99.90;;;;;;5053811;28;20440;-46
2021/03/14 03:45:19;;;;;;;4.60;2.23;;;7.20;99.90;;;;;;5053676;28;20913;-46
2021/03/14 03:47:46;;;;;;;2.40;2.20;;;7.50;99.90;;;;;;5053651;28;20858;-46
2021/03/14 03:50:15;;;;;;;4.20;2.20;;;7.40;99.90;;;;;;5035483;28;21079;-46
2021/03/14 03:52:43;;;;;;;5.50;2.00;;;7.00;99.90;;;;;;5053127;28;20430;-46
2021/03/14 03:55:12;;;;;;;2.90;2.07;;;7.20;99.90;;;;;;5053526;28;20403;-46
2021/03/14 03:57:40;;;;;;;2.13;1.93;;;7.30;99.90;;;;;;5053427;28;21073;-46
2021/03/14 04:00:09;;;;;;;3.63;2.07;;;7.00;99.90;;;;;;5053487;28;20433;-47
2021/03/14 04:02:37;;;;;;;4.13;1.60;;;7.30;99.90;;;;;;5052709;28;20843;-47
2021/03/14 04:05:05;;;;;;;2.77;1.30;;;7.20;99.90;;;;;;5053148;28;20983;-46
2021/03/14 04:07:34;;;;;;;3.50;1.63;;;7.40;99.90;;;;;;5053143;28;20546;-46
2021/03/14 04:10:01;;;;;;;1.93;1.73;;;7.30;99.90;;;;;;5052950;28;20478;-46
2021/03/14 04:12:29;;;;;;;2.80;1.47;;;7.40;99.90;;;;;;5034840;28;20542;-46
2021/03/14 04:14:56;;;;;;;3.30;1.83;;;7.20;99.90;;;;;;5053119;28;20402;-46
2021/03/14 04:17:22;;;;;;;2.63;2.13;;;7.20;99.90;;;;;;5051982;28;20579;-46
2021/03/14 04:19:51;;;;;;;3.23;2.30;;;7.50;99.90;;;;;;5052871;28;20437;-45
2021/03/14 04:22:18;;;;;;;1.90;1.70;;;7.30;99.90;;;;;;5052496;28;20548;-45
2021/03/14 04:24:46;;;;;;;2.60;1.37;;;7.30;99.90;;;;;;5052610;28;21053;-46
2021/03/14 04:27:13;;;;;;;2.83;1.67;;;7.10;99.90;;;;;;5053047;28;20436;-45
2021/03/14 04:29:42;;;;;;;1.97;1.40;;;6.90;99.90;;;;;;5052799;28;20519;-46
2021/03/14 04:32:10;;;;;;;1.37;1.27;;;7.20;99.90;;;;;;5052625;28;21018;-46
2021/03/14 04:34:38;;;;;;;2.73;1.23;;;7.10;99.90;;;;;;5052337;28;20453;-46
2021/03/14 04:37:06;;;;;;;1.40;1.10;;;7.10;99.90;;;;;;5052317;28;20474;-46
2021/03/14 04:39:32;;;;;;;3.50;2.30;;;7.00;99.90;;;;;;5052541;28;20815;-47
2021/03/14 04:41:59;;;;;;;2.73;1.67;;;6.70;99.90;;;;;;5052305;28;20909;-47
2021/03/14 04:44:26;;;;;;;2.50;1.33;;;7.10;99.90;;;;;;5052126;28;20948;-47
2021/03/14 04:46:53;;;;;;;3.03;1.47;;;7.00;99.90;;;;;;5052338;28;20446;-46
2021/03/14 04:49:20;;;;;;;1.70;0.93;;;7.10;99.90;;;;;;5052339;28;20427;-46
2021/03/14 04:51:47;;;;;;;1.50;1.17;;;7.00;99.90;;;;;;5052095;28;20967;-46
2021/03/14 04:54:15;;;;;;;2.40;1.30;;;6.90;99.90;;;;;;5051906;28;20467;-46
2021/03/14 04:56:42;;;;;;;3.57;1.53;;;6.80;99.90;;;;;;5052180;28;20478;-46
2021/03/14 04:59:11;;;;;;;2.30;1.77;;;6.90;99.90;;;;;;5052119;28;20788;-47
2021/03/14 05:01:39;;;;;;;2.87;1.83;;;6.90;99.90;;;;;;5051805;28;20483;-46
2021/03/14 05:04:08;;;;;;;1.97;1.10;;;6.90;99.90;;;;;;5051706;28;20903;-46
2021/03/14 05:06:35;;;;;;;1.10;0.70;;;7.10;99.90;;;;;;5051986;28;20806;-46
2021/03/14 05:09:04;;;;;;;4.43;1.10;;;6.80;99.90;;;;;;5052212;28;20437;-45
2021/03/14 05:11:31;;;;;;;1.20;1.00;;;6.90;99.90;;;;;;5051851;28;20463;-44
2021/03/14 05:13:58;;;;;;;2.73;0.90;;;6.70;99.90;;;;;;5051931;28;20827;-46
2021/03/14 05:16:27;;;;;;;1.30;1.10;;;6.70;99.90;;;;;;5051736;28;21079;-45
2021/03/14 05:18:53;;;;;;;4.73;1.10;;;6.60;99.90;;;;;;5051838;28;20820;-45
2021/03/14 05:21:21;;;;;;;2.17;1.40;;;6.90;99.90;;;;;;5051849;28;20994;-46
2021/03/14 05:23:48;;;;;;;1.40;1.23;;;6.40;99.90;;;;;;5051764;28;20428;-45
2021/03/14 05:26:14;;;;;;;1.53;1.40;;;6.60;99.90;;;;;;5051827;28;20443;-45
2021/03/14 05:28:42;;;;;;;1.77;1.17;;;6.80;99.90;;;;;;5051597;28;20462;-47
2021/03/14 05:31:30;;;;;;;1.40;1.30;;;6.80;99.90;;;;;;5051546;28;20541;-45
2021/03/14 05:33:58;;;;;;;1.30;1.10;;;7.20;99.90;;;;;;5051544;28;20428;-46
2021/03/14 05:36:26;;;;;;;1.53;1.23;;;6.70;99.90;;;;;;5052400;28;20476;-45
2021/03/14 05:38:53;;;;;;;2.20;1.60;;;6.90;99.90;;;;;;5034274;28;20858;-45
2021/03/14 05:41:19;;;;;;;3.10;1.73;;;6.80;99.90;;;;;;5051471;28;20462;-45
2021/03/14 05:43:47;;;;;;;2.77;1.60;;;7.00;99.90;;;;;;5051172;28;20497;-46
2021/03/14 05:46:13;;;;;;;2.57;2.20;;;6.90;99.90;;;;;;5051782;28;20935;-46
2021/03/14 05:48:42;;;;;;;1.80;1.70;;;7.00;99.90;;;;;;5051512;28;20425;-46
2021/03/14 05:51:08;;;;;;;3.97;1.77;;;7.20;99.90;;;;;;5051387;28;20451;-47
2021/03/14 05:53:38;;;;;;;2.10;1.70;;;6.60;99.90;;;;;;5050982;28;20420;-46
2021/03/14 05:56:07;;;;;;;2.20;1.47;;;7.10;99.90;;;;;;5051272;28;20431;-46
2021/03/14 05:58:35;;;;;;;3.03;1.30;;;7.00;99.90;;;;;;5051445;28;20432;-46
2021/03/14 06:01:02;;;;;;;1.50;1.20;;;6.70;99.90;;;;;;5051124;28;20462;-46
2021/03/14 06:03:30;;;;;;;3.03;1.20;;;6.60;99.90;;;;;;5051055;28;20923;-47
2021/03/14 06:05:56;;;;;;;2.43;1.40;;;6.70;99.90;;;;;;5033327;28;20454;-47
2021/03/14 06:08:22;;;;;;;1.60;1.50;;;6.70;99.90;;;;;;5051510;28;20438;-46
2021/03/14 06:10:50;;;;;;;2.47;1.40;;;6.60;99.90;;;;;;5051301;28;20968;-46
2021/03/14 06:13:17;;;;;;;1.43;1.27;;;6.90;99.90;;;;;;5051108;28;20439;-46
2021/03/14 06:15:43;;;;;;;2.23;1.23;;;6.80;99.90;;;;;;5051266;28;20924;-46
2021/03/14 06:18:09;;;;;;;2.60;1.30;;;6.30;99.90;;;;;;5051234;28;20467;-46
2021/03/14 06:20:38;;;;;;;2.50;1.20;;;6.70;99.90;;;;;;5051025;28;20470;-46
2021/03/14 06:23:09;;;;;;;1.20;1.10;;;7.10;99.90;;;;;;5033072;28;20463;-46
2021/03/14 06:25:36;;;;;;;2.90;1.10;;;7.00;99.90;;;;;;5051080;28;20494;-46
2021/03/14 06:28:03;;;;;;;2.10;1.37;;;6.90;99.90;;;;;;5051243;28;20431;-46
2021/03/14 06:30:32;;;;;;;1.30;1.17;;;7.10;99.90;;;;;;5051271;28;20491;-46
2021/03/14 06:33:07;;;;;;;1.53;1.33;;;6.90;99.90;;;;;;5050516;28;20439;-46
2021/03/14 06:35:38;;;;;;;1.97;1.03;;;7.20;99.90;;;;;;5051012;28;20437;-47
2021/03/14 06:38:21;;;;;;;1.70;1.00;;;7.10;99.90;;;;;;5051116;28;20576;-46
2021/03/14 06:40:50;;;;;;;2.20;1.10;;;6.90;99.90;;;;;;5051578;28;20963;-46
2021/03/14 06:43:17;;;;;;;2.10;1.40;;;7.20;99.90;;;;;;5054236;28;20440;-46
2021/03/14 06:45:45;;;;;;;1.70;1.30;;;7.30;99.90;;;;;;5054589;28;20466;-46
2021/03/14 06:48:11;;;;;;;2.17;1.37;;;6.90;99.90;;;;;;5054619;28;20471;-46
2021/03/14 06:50:40;;;;;;;1.93;1.50;;;6.90;99.90;;;;;;5054498;28;20451;-46
2021/03/14 06:53:12;;;;;;;2.00;1.10;;;7.00;99.90;;;;;;5054341;28;20438;-46
2021/03/14 06:55:39;;;;;;;2.03;1.20;;;7.30;99.90;;;;;;5054807;28;20436;-47
2021/03/14 06:58:29;;;;;;;3.00;1.73;;;6.90;99.90;;;;;;5054479;28;20486;-46
2021/03/14 07:01:13;;;;;;;1.97;1.20;;;6.90;99.90;;;;;;5054135;28;20492;-46
2021/03/14 07:03:41;;;;;;;2.97;1.40;;;7.10;99.90;;;;;;5053919;28;20443;-46
2021/03/14 07:06:22;;;;;;;2.33;1.53;;;7.00;99.90;;;;;;5054343;28;20440;-46
2021/03/14 07:08:50;;;;;;;2.80;1.60;;;6.80;99.90;;;;;;5054081;28;20924;-46
2021/03/14 07:11:35;;;;;;;3.33;2.17;;;7.00;99.90;;;;;;5053963;28;20461;-46
2021/03/14 07:14:03;;;;;;;3.07;2.40;;;6.90;99.90;;;;;;5053759;28;20429;-46
2021/03/14 07:16:43;;;;;;;3.30;1.80;;;6.80;99.90;;;;;;5053918;28;20472;-46
2021/03/14 07:19:09;;;;;;;4.77;2.00;;;6.90;99.90;;;;;;5053839;28;20423;-46
2021/03/14 07:21:36;;;;;;;1.80;1.70;;;6.70;99.90;;;;;;5053627;28;20507;-49
2021/03/14 07:24:05;;;;;;;2.77;2.30;;;6.60;99.90;;;;;;5053718;28;20829;-46
2021/03/14 07:26:42;;;;;;;2.57;1.90;;;6.80;99.90;;;;;;5035878;28;20440;-46
2021/03/14 07:29:09;;;;;;;2.23;2.00;;;7.00;99.90;;;;;;5053751;28;20431;-46
2021/03/14 07:31:36;;;;;;;3.43;2.30;;;6.50;99.90;;;;;;5053623;28;20459;-46
2021/03/14 07:34:04;;;;;;;3.63;2.20;;;7.00;99.90;;;;;;5053096;28;20425;-46
2021/03/14 07:36:30;;;;;;;2.90;2.30;;;7.10;99.90;;;;;;5053508;28;20563;-46
2021/03/14 07:38:57;;;;;;;3.60;1.90;;;6.70;99.90;;;;;;5053268;28;20440;-46
2021/03/14 07:41:25;;;;;;;5.50;2.33;;;6.50;99.90;;;;;;5053438;28;20510;-46
2021/03/14 07:43:52;;;;;;;3.40;2.60;;;7.20;99.90;;;;;;5052953;28;20775;-46
2021/03/14 07:46:24;;;;;;;4.00;2.97;;;7.00;99.90;;;;;;5053527;28;20467;-46
2021/03/14 07:48:52;;;;;;;3.50;2.93;;;6.60;99.90;;;;;;5053435;28;20440;-46
2021/03/14 07:51:22;;;;;;;5.00;4.20;;;7.10;99.90;;;;;;5053372;28;20452;-46
2021/03/14 07:53:49;;;;;;;6.00;5.23;;;6.90;99.90;;;;;;5052901;28;20434;-46
2021/03/14 07:56:16;;;;;;;7.60;4.70;;;7.10;99.90;;;;;;5053141;28;20436;-46
2021/03/14 07:58:42;;;;;;;8.50;5.60;;;7.00;99.90;;;;;;5053321;28;20432;-46
2021/03/14 08:01:29;;;;;;;2.50;1.93;;;7.10;99.90;;;;;;5052981;28;20474;-46
2021/03/14 08:03:56;;;;;;;4.40;3.30;;;7.10;99.90;;;;;;5052558;28;20966;-46
2021/03/14 08:06:51;;;;;;;5.53;3.70;;;7.00;99.90;;;;;;5053158;28;20630;-46
2021/03/14 08:09:40;;;;;;;3.93;3.37;;;7.20;99.90;;;;;;5053068;28;20439;-46
2021/03/14 08:12:25;;;;;;;3.67;2.07;;;7.20;99.90;;;;;;5056457;28;20459;-46
2021/03/14 08:14:54;;;;;;;2.30;2.10;;;6.70;99.90;;;;;;5053723;28;20479;-46
2021/03/14 08:17:26;;;;;;;4.77;2.27;;;7.10;99.90;;;;;;5052996;28;20462;-46
2021/03/14 08:19:53;;;;;;;4.33;1.93;;;6.70;99.90;;;;;;5052938;28;20433;-46
2021/03/14 08:22:42;;;;;;;5.00;3.17;;;7.30;99.90;;;;;;5034475;28;20488;-46
2021/03/14 08:25:21;;;;;;;4.70;2.30;;;7.20;99.90;;;;;;5053068;28;20806;-46
2021/03/14 08:27:49;;;;;;;3.20;2.27;;;7.50;99.90;;;;;;5035383;28;20483;-45
2021/03/14 08:30:47;;;;;;;3.07;2.20;;;7.60;99.90;;;;;;5053082;28;20436;-46
2021/03/14 08:33:40;;;;;;;2.20;1.80;;;7.20;99.90;;;;;;5053847;28;20803;-45
2021/03/14 08:36:13;;;;;;;3.77;3.10;;;7.20;99.90;;;;;;5035076;28;20452;-46
2021/03/14 08:38:46;;;;;;;2.77;2.40;;;7.40;99.90;;;;;;5034744;28;20456;-44
2021/03/14 08:41:35;;;;;;;4.33;2.50;;;7.50;99.90;;;;;;5034744;28;20674;-44
2021/03/14 08:44:08;;;;;;;9.70;6.60;;;7.70;99.90;;;;;;5052245;28;20461;-43
2021/03/14 08:47:06;;;;;;;11.97;6.07;;;7.60;99.90;;;;;;5034739;28;20502;-46
2021/03/14 08:49:47;;;;;;;4.00;2.93;;;7.80;99.90;;;;;;5034633;28;20447;-45
2021/03/14 08:52:18;;;;;;;3.10;2.33;;;7.20;99.90;;;;;;5034471;28;20473;-45
2021/03/14 08:54:56;;;;;;;11.60;2.87;;;7.20;99.90;;;;;;5034682;28;20451;-45
2021/03/14 08:57:25;;;;;;;4.60;3.53;;;7.30;99.90;;;;;;5034134;28;20567;-47
2021/03/14 08:59:57;;;;;;;5.70;4.30;;;7.30;99.90;;;;;;5034154;28;20449;-46
2021/03/14 09:02:25;;;;;;;5.23;3.67;;;7.20;99.90;;;;;;5066298;22;20505;-48
2021/03/14 09:04:55;;;;;;;3.10;2.20;;;7.50;99.90;;;;;;5034290;28;20452;-48
2021/03/14 09:07:39;;;;;;;3.03;2.40;;;7.30;99.90;;;;;;5034517;28;20498;-48
2021/03/14 09:10:10;;;;;;;6.50;2.23;;;7.20;99.90;;;;;;5034605;28;20455;-49
2021/03/14 09:12:59;;;;;;;2.40;1.87;;;7.20;99.90;;;;;;5052058;28;20467;-48
2021/03/14 09:15:33;;;;;;;4.47;2.43;;;7.20;99.90;;;;;;5052045;28;20407;-48
2021/03/14 09:18:47;;;;;;;4.10;2.20;;;7.30;99.90;;;;;;5036640;28;20851;-49
2021/03/14 09:21:14;;;;;;;3.63;2.00;;;7.30;99.90;;;;;;5034229;28;20555;-49
2021/03/14 09:23:46;;;;;;;5.63;2.10;;;7.40;99.90;;;;;;5033667;28;20793;-49
2021/03/14 09:26:27;;;;;;;4.70;2.20;;;7.40;99.90;;;;;;5033680;28;20841;-49
2021/03/14 09:28:53;;;;;;;4.63;2.50;;;7.60;99.90;;;;;;5052038;28;20419;-48
2021/03/14 09:31:19;;;;;;;5.20;2.40;;;7.70;99.90;;;;;;5033932;28;20471;-48
2021/03/14 09:33:56;;;;;;;6.43;3.50;;;7.50;99.90;;;;;;5034182;28;20448;-50
2021/03/14 09:36:29;;;;;;;3.60;2.50;;;8.00;99.90;;;;;;5034584;28;20449;-49
2021/03/14 09:39:03;;;;;;;6.20;2.70;;;7.70;99.90;;;;;;5034666;28;20527;-49
2021/03/14 09:41:55;;;;;;;5.70;2.83;;;7.70;99.90;;;;;;5034596;28;20820;-49
2021/03/14 09:44:40;;;;;;;6.37;2.90;;;7.70;99.90;;;;;;5052424;28;20927;-49
2021/03/14 09:47:13;;;;;;;6.80;2.97;;;7.00;99.90;;;;;;5034151;28;20416;-48
2021/03/14 09:50:00;;;;;;;5.57;2.83;;;7.70;99.90;;;;;;5034181;28;20455;-48
2021/03/14 09:52:28;;;;;;;4.83;3.20;;;7.40;99.90;;;;;;5033372;28;20472;-49
2021/03/14 09:54:54;;;;;;;5.97;3.43;;;7.60;99.90;;;;;;5033789;28;21170;-50
2021/03/14 09:57:22;;;;;;;4.70;3.30;;;7.70;99.90;;;;;;5033760;28;20481;-48
2021/03/14 09:59:57;;;;;;;6.20;3.60;;;8.10;99.90;;;;;;5033649;28;20549;-49
2021/03/14 10:02:42;;;;;;;5.73;3.80;;;7.80;99.90;;;;;;5051516;28;20460;-50
2021/03/14 10:05:39;;;;;;;6.40;4.80;;;8.10;99.90;;;;;;5043580;28;20452;-49
2021/03/14 10:08:09;;;;;;;9.60;4.77;;;8.10;99.90;;;;;;5051458;28;20956;-49
2021/03/14 10:10:38;;;;;;;6.10;2.97;;;8.00;99.90;;;;;;5033459;28;20451;-48
2021/03/14 10:13:06;;;;;;;7.33;3.97;;;8.10;99.90;;;;;;5032985;28;20552;-48
2021/03/14 10:15:34;;;;;;;7.97;4.53;;;8.00;99.90;;;;;;5033782;28;20453;-48
2021/03/14 10:18:06;;;;;;;9.40;3.97;;;8.10;99.90;;;;;;5037430;28;20531;-49
2021/03/14 10:20:35;;;;;;;8.37;4.60;;;7.70;99.90;;;;;;5037852;28;20475;-49
2021/03/14 10:23:08;;;;;;;9.07;5.20;;;8.20;99.90;;;;;;5037088;28;20937;-48
2021/03/14 10:25:42;;;;;;;11.23;4.90;;;8.30;99.90;;;;;;5037154;28;20490;-49
2021/03/14 10:28:23;;;;;;;6.00;4.30;;;8.40;99.90;;;;;;5037235;28;20501;-48
2021/03/14 10:31:06;;;;;;;11.77;4.10;;;8.60;99.90;;;;;;5036824;28;20528;-49
2021/03/14 10:33:40;;;;;;;5.33;4.30;;;8.90;99.90;;;;;;5036744;28;20548;-50
2021/03/14 10:36:10;;;;;;;7.23;4.50;;;8.60;99.90;;;;;;5037508;28;20443;-49
2021/03/14 10:38:42;;;;;;;8.40;4.53;;;8.90;99.90;;;;;;5037377;28;20438;-48
2021/03/14 10:41:18;;;;;;;6.93;3.87;;;9.00;99.90;;;;;;5037054;28;20488;-50
2021/03/14 10:43:53;;;;;;;5.77;3.33;;;9.20;99.90;;;;;;5037245;28;20859;-50
2021/03/14 10:46:37;;;;;;;4.57;3.07;;;8.10;99.90;;;;;;5037535;28;20457;-48
2021/03/14 10:49:06;;;;;;;5.10;2.90;;;8.30;99.90;;;;;;5055249;28;20934;-48
2021/03/14 10:51:34;;;;;;;6.30;3.10;;;8.40;99.90;;;;;;5036994;28;20531;-48
2021/03/14 10:54:09;;;;;;;6.70;3.80;;;8.60;99.90;;;;;;5036546;28;20477;-48
2021/03/14 10:56:39;;;;;;;5.90;3.30;;;8.20;99.90;;;;;;5036443;28;20979;-48
2021/03/14 10:59:06;;;;;;;6.87;3.20;;;8.10;99.90;;;;;;5036897;28;20445;-49
2021/03/14 11:01:48;;;;;;;5.33;3.63;;;8.10;99.90;;;;;;5036491;28;20508;-49
2021/03/14 11:04:16;;;;;;;7.63;3.30;;;8.10;99.90;;;;;;5035941;28;20535;-49
2021/03/14 11:06:52;;;;;;;8.40;3.40;;;8.50;99.90;;;;;;5036675;28;20434;-49
2021/03/14 11:09:27;;;;;;;6.87;4.67;;;8.30;99.90;;;;;;5036525;28;20451;-49
2021/03/14 11:11:55;;;;;;;5.40;3.43;;;8.10;99.90;;;;;;5036440;28;20479;-48
2021/03/14 11:14:36;;;;;;;6.60;3.67;;;7.90;99.90;;;;;;5053829;28;20831;-48
2021/03/14 11:17:16;;;;;;;5.37;3.70;;;8.20;99.90;;;;;;5036256;28;20481;-48
2021/03/14 11:19:53;;;;;;;9.17;3.83;;;8.00;99.90;;;;;;5036800;28;20458;-48
2021/03/14 11:22:21;;;;;;;11.27;4.30;;;8.10;99.90;;;;;;5036300;28;20477;-48
2021/03/14 11:24:52;;;;;;;4.83;3.63;;;8.20;99.90;;;;;;5055038;28;20433;-47
2021/03/14 11:27:21;;;;;;;6.30;3.70;;;7.80;99.90;;;;;;5035830;28;20441;-48
2021/03/14 11:29:47;;;;;;;6.97;4.03;;;8.00;99.90;;;;;;5054252;28;20433;-49
2021/03/14 11:32:18;;;;;;;9.47;4.40;;;8.10;99.90;;;;;;5036112;28;20473;-49
2021/03/14 11:34:59;;;;;;;8.73;4.23;;;8.10;99.90;;;;;;5036026;28;20455;-49
2021/03/14 11:37:44;;;;;;;10.43;4.00;;;8.10;99.90;;;;;;5054146;28;20834;-48
2021/03/14 11:40:30;;;;;;;5.37;3.43;;;8.30;99.90;;;;;;5054173;28;20832;-48
2021/03/14 11:43:14;;;;;;;9.70;4.47;;;8.20;99.90;;;;;;5035817;28;20453;-50
2021/03/14 11:45:44;;;;;;;7.70;5.07;;;8.40;99.90;;;;;;5035924;28;20456;-49
2021/03/14 11:48:10;;;;;;;5.10;4.27;;;8.40;99.90;;;;;;5035808;28;20449;-48
2021/03/14 11:50:56;;;;;;;8.90;3.50;;;8.60;99.90;;;;;;5035993;28;20893;-48
2021/03/14 11:53:23;;;;;;;6.37;4.43;;;8.40;99.90;;;;;;5053399;28;20778;-47
2021/03/14 11:55:57;;;;;;;6.73;3.73;;;8.60;99.90;;;;;;5035942;28;20512;-47
2021/03/14 11:58:29;;;;;;;8.13;3.90;;;9.00;99.90;;;;;;5036045;28;20579;-51
2021/03/14 12:00:55;;;;;;;5.60;3.13;;;8.20;99.90;;;;;;5053373;28;20409;-49
2021/03/14 12:03:23;;;;;;;5.30;3.50;;;8.70;99.90;;;;;;5035242;28;20442;-47
2021/03/14 12:05:57;;;;;;;7.70;4.07;;;9.00;99.90;;;;;;5053677;28;20449;-48
2021/03/14 12:08:33;;;;;;;11.63;5.10;;;8.90;99.90;;;;;;5053464;28;20442;-49
2021/03/14 12:11:03;;;;;;;8.23;3.50;;;8.90;99.90;;;;;;5035206;28;20442;-48
2021/03/14 12:13:34;;;;;;;5.83;3.30;;;8.90;99.90;;;;;;5035133;28;20565;-49
2021/03/14 12:16:03;;;;;;;5.23;3.47;;;8.90;99.90;;;;;;5035363;28;20449;-48
2021/03/14 12:18:30;;;;;;;6.70;4.03;;;9.10;99.90;;;;;;5035669;28;20509;-49
2021/03/14 12:21:00;;;;;;;5.87;3.80;;;8.80;99.90;;;;;;5035312;28;20440;-48
2021/03/14 12:23:37;;;;;;;7.00;3.80;;;8.70;99.90;;;;;;5035210;28;20450;-47
2021/03/14 12:26:20;;;;;;;6.70;3.27;;;8.70;99.90;;;;;;5036209;28;20962;-47
2021/03/14 12:28:47;;;;;;;11.07;5.70;;;8.90;99.90;;;;;;5053816;28;20981;-47
2021/03/14 12:31:16;;;;;;;12.77;4.40;;;8.70;99.90;;;;;;5035589;28;20994;-48
2021/03/14 12:33:44;;;;;;;9.90;4.60;;;8.70;99.90;;;;;;5035412;28;20541;-47
2021/03/14 12:36:13;;;;;;;8.57;4.00;;;9.10;99.90;;;;;;5035658;28;20450;-47
2021/03/14 12:38:51;;;;;;;9.17;4.60;;;9.00;99.90;;;;;;5034798;28;20907;-48
2021/03/14 12:41:17;;;;;;;7.17;3.90;;;9.00;99.90;;;;;;5035843;28;20449;-48
2021/03/14 12:43:45;;;;;;;6.03;3.27;;;8.90;99.90;;;;;;5034805;28;20459;-48
2021/03/14 12:46:12;;;;;;;6.20;4.03;;;8.70;99.90;;;;;;5035715;28;20454;-49
2021/03/14 12:48:38;;;;;;;8.70;3.43;;;9.10;99.90;;;;;;5053480;28;20433;-49
2021/03/14 12:51:07;;;;;;;5.10;3.23;;;9.30;99.90;;;;;;5035424;28;21103;-48
2021/03/14 12:53:36;;;;;;;8.97;3.77;;;9.00;99.90;;;;;;5034788;28;20477;-49
2021/03/14 12:56:07;;;;;;;5.87;3.00;;;9.40;99.90;;;;;;5052919;28;20443;-48
2021/03/14 12:58:43;;;;;;;7.23;4.00;;;9.10;99.90;;;;;;5034923;28;20482;-49
2021/03/14 13:01:10;;;;;;;8.30;3.67;;;9.20;99.90;;;;;;5033785;28;20498;-49
2021/03/14 13:03:36;;;;;;;10.30;3.90;;;9.40;99.90;;;;;;5052016;28;20430;-49
2021/03/14 13:06:02;;;;;;;10.33;3.43;;;9.30;99.90;;;;;;5052239;28;20434;-50
2021/03/14 13:08:29;;;;;;;5.90;3.33;;;9.40;99.90;;;;;;5052406;28;20530;-48
2021/03/14 13:10:55;;;;;;;5.70;2.97;;;9.30;99.90;;;;;;5051668;28;20441;-48
2021/03/14 13:13:21;;;;;;;7.77;3.90;;;9.50;99.90;;;;;;5052013;28;20513;-47
2021/03/14 13:15:48;;;;;;;6.47;3.90;;;9.20;99.90;;;;;;5052082;28;20440;-47